Time;durP1;ratioP1;P1;durP2;ratioP2;P2;SDS_P1;SDS_P2;PMS_P1;PMS_P2;Temp;Humidity;BMP_temperature;BMP_pressure;BME280_temperature;BME280_humidity;BME280_pressure;Samples;Min_cycle;Max_cycle;Signal;HPM_P1;HPM_P2
2020/12/27 00:01:56;;;;;;;38.03;16.45;;;;;;;;;;5054803;28;20023;-70
2020/12/27 00:04:22;;;;;;;44.35;17.77;;;;;;;;;;5072565;28;20009;-69
2020/12/27 00:06:47;;;;;;;37.28;16.50;;;;;;;;;;5072707;28;20024;-70
2020/12/27 00:09:13;;;;;;;33.20;15.48;;;;;;;;;;5072686;28;20048;-70
2020/12/27 00:11:38;;;;;;;37.50;16.13;;;;;;;;;;5072566;28;20020;-70
2020/12/27 00:14:04;;;;;;;27.83;13.90;;;;;;;;;;5054439;28;20027;-71
2020/12/27 00:16:29;;;;;;;32.22;14.95;;;;;;;;;;5071902;28;20495;-70
2020/12/27 00:18:55;;;;;;;34.35;14.48;;;;;;;;;;5072571;28;20051;-70
2020/12/27 00:21:20;;;;;;;39.72;16.50;;;;;;;;;;5054513;28;20020;-70
2020/12/27 00:23:46;;;;;;;40.85;16.35;;;;;;;;;;5072578;28;20013;-70
2020/12/27 00:26:13;;;;;;;38.05;17.42;;;;;;;;;;5054361;28;20020;-70
2020/12/27 00:28:38;;;;;;;38.15;16.17;;;;;;;;;;5072438;28;20017;-71
2020/12/27 00:31:05;;;;;;;33.72;16.13;;;;;;;;;;5054651;28;20032;-70
2020/12/27 00:33:31;;;;;;;35.35;16.38;;;;;;;;;;5054215;28;20044;-70
2020/12/27 00:35:56;;;;;;;30.17;14.30;;;;;;;;;;5054443;28;20106;-70
2020/12/27 00:38:23;;;;;;;31.02;14.40;;;;;;;;;;5054462;28;20048;-70
2020/12/27 00:40:48;;;;;;;36.28;16.38;;;;;;;;;;5072501;28;20013;-70
2020/12/27 00:43:14;;;;;;;38.78;15.23;;;;;;;;;;5054713;28;20020;-69
2020/12/27 00:45:40;;;;;;;35.35;16.48;;;;;;;;;;5072509;28;20019;-70
2020/12/27 00:48:05;;;;;;;37.25;15.70;;;;;;;;;;5053396;28;20028;-70
2020/12/27 00:50:31;;;;;;;33.35;14.57;;;;;;;;;;5072248;28;20012;-69
2020/12/27 00:52:56;;;;;;;31.92;14.85;;;;;;;;;;5072182;28;20091;-69
2020/12/27 00:55:22;;;;;;;34.38;15.75;;;;;;;;;;5037546;28;20024;-69
2020/12/27 00:57:47;;;;;;;31.35;12.88;;;;;;;;;;5072120;28;20116;-70
2020/12/27 01:00:13;;;;;;;24.42;12.40;;;;;;;;;;5072053;28;20023;-71
2020/12/27 01:02:38;;;;;;;28.80;12.43;;;;;;;;;;5054280;28;20028;-70
2020/12/27 01:05:04;;;;;;;28.70;13.35;;;;;;;;;;5054287;28;20477;-71
2020/12/27 01:07:30;;;;;;;31.75;13.85;;;;;;;;;;5054170;28;20084;-70
2020/12/27 01:09:56;;;;;;;27.98;12.95;;;;;;;;;;5071931;28;20508;-70
2020/12/27 01:12:21;;;;;;;31.77;13.43;;;;;;;;;;5071631;28;20023;-69
2020/12/27 01:14:47;;;;;;;33.42;14.73;;;;;;;;;;5071731;28;20143;-70
2020/12/27 01:17:12;;;;;;;31.17;13.95;;;;;;;;;;5071264;28;20322;-70
2020/12/27 01:19:37;;;;;;;27.80;12.45;;;;;;;;;;5071912;28;20381;-70
2020/12/27 01:22:03;;;;;;;25.45;12.43;;;;;;;;;;5053866;28;20091;-70
2020/12/27 01:24:28;;;;;;;29.40;13.75;;;;;;;;;;5054063;28;20013;-69
2020/12/27 01:26:54;;;;;;;37.33;15.98;;;;;;;;;;5071947;28;20032;-70
2020/12/27 01:29:19;;;;;;;43.80;18.33;;;;;;;;;;5071593;28;20051;-69
2020/12/27 01:31:45;;;;;;;76.00;25.83;;;;;;;;;;5071890;28;20024;-70
2020/12/27 01:34:10;;;;;;;76.22;27.15;;;;;;;;;;5053119;28;20095;-70
2020/12/27 01:36:36;;;;;;;96.88;29.42;;;;;;;;;;5037522;28;20025;-70
2020/12/27 01:39:05;;;;;;;86.03;27.92;;;;;;;;;;5054520;28;20382;-70
2020/12/27 01:41:30;;;;;;;61.50;23.73;;;;;;;;;;5054091;28;20021;-69
2020/12/27 01:43:56;;;;;;;69.40;24.23;;;;;;;;;;5055187;28;20033;-70
2020/12/27 01:46:22;;;;;;;70.68;25.67;;;;;;;;;;5054513;28;20104;-70
2020/12/27 01:48:47;;;;;;;73.28;24.63;;;;;;;;;;5055160;28;20121;-69
2020/12/27 01:51:13;;;;;;;70.35;24.63;;;;;;;;;;5055191;28;20013;-69
2020/12/27 01:53:38;;;;;;;53.15;23.00;;;;;;;;;;5055056;28;20021;-70
2020/12/27 01:56:04;;;;;;;51.92;19.35;;;;;;;;;;5054762;28;20051;-69
2020/12/27 01:58:32;;;;;;;34.35;15.95;;;;;;;;;;5054850;28;20470;-70
2020/12/27 02:00:59;;;;;;;32.05;13.60;;;;;;;;;;5053607;28;20045;-71
2020/12/27 02:03:24;;;;;;;30.38;12.98;;;;;;;;;;5053558;28;20028;-70
2020/12/27 02:05:50;;;;;;;29.73;14.23;;;;;;;;;;5055004;28;20021;-70
2020/12/27 02:08:18;;;;;;;28.45;12.85;;;;;;;;;;5053452;28;20017;-70
2020/12/27 02:10:45;;;;;;;31.70;12.25;;;;;;;;;;5054907;28;20477;-70
2020/12/27 02:13:10;;;;;;;32.15;12.73;;;;;;;;;;5054644;28;20108;-70
2020/12/27 02:15:37;;;;;;;23.70;11.50;;;;;;;;;;5053364;28;20446;-70
2020/12/27 02:18:02;;;;;;;24.83;10.90;;;;;;;;;;5052667;28;20036;-70
2020/12/27 02:20:28;;;;;;;28.33;12.23;;;;;;;;;;5036738;28;20111;-70
2020/12/27 02:22:53;;;;;;;23.00;10.88;;;;;;;;;;5054603;28;20053;-70
2020/12/27 02:25:19;;;;;;;28.17;11.77;;;;;;;;;;5054376;28;20021;-70
2020/12/27 02:27:44;;;;;;;27.30;11.70;;;;;;;;;;5053215;28;20021;-70
2020/12/27 02:30:10;;;;;;;24.83;12.32;;;;;;;;;;5054196;28;20024;-69
2020/12/27 02:32:35;;;;;;;25.52;12.13;;;;;;;;;;5037133;28;20025;-70
2020/12/27 02:35:01;;;;;;;27.95;13.35;;;;;;;;;;5074261;28;20058;-70
2020/12/27 02:37:26;;;;;;;27.98;12.82;;;;;;;;;;5056171;28;20472;-69
2020/12/27 02:39:53;;;;;;;30.75;13.35;;;;;;;;;;5074228;28;20029;-70
2020/12/27 02:42:19;;;;;;;32.88;13.35;;;;;;;;;;5055899;28;20016;-69
2020/12/27 02:47:19;;;;;;;27.85;12.18;;;;;;;;;;5073247;28;20017;-69
2020/12/27 02:49:44;;;;;;;27.98;12.07;;;;;;;;;;5074056;28;20028;-70
2020/12/27 02:52:10;;;;;;;24.08;11.55;;;;;;;;;;5073645;28;20059;-69
2020/12/27 02:54:36;;;;;;;27.08;11.68;;;;;;;;;;5056045;28;20483;-70
2020/12/27 02:57:01;;;;;;;34.33;14.82;;;;;;;;;;5073786;28;20366;-69
2020/12/27 02:59:26;;;;;;;33.80;14.00;;;;;;;;;;5073578;28;20358;-69
2020/12/27 03:01:52;;;;;;;47.03;18.27;;;;;;;;;;5073841;28;20500;-70
2020/12/27 03:04:17;;;;;;;35.13;14.57;;;;;;;;;;5073464;28;20021;-70
2020/12/27 03:06:43;;;;;;;33.55;13.00;;;;;;;;;;5073916;28;20104;-70
2020/12/27 03:09:08;;;;;;;30.42;12.45;;;;;;;;;;5073557;28;20020;-70
2020/12/27 03:11:34;;;;;;;31.45;11.80;;;;;;;;;;5073339;28;20024;-70
2020/12/27 03:13:59;;;;;;;26.00;11.82;;;;;;;;;;5073301;28;20095;-71
2020/12/27 03:16:24;;;;;;;27.70;11.20;;;;;;;;;;5072637;28;20037;-69
2020/12/27 03:18:50;;;;;;;23.45;11.02;;;;;;;;;;5073508;28;20055;-70
2020/12/27 03:21:16;;;;;;;27.50;11.35;;;;;;;;;;5073318;28;20021;-69
2020/12/27 03:23:41;;;;;;;19.08;9.60;;;;;;;;;;5073401;28;20020;-70
2020/12/27 03:26:07;;;;;;;21.13;9.20;;;;;;;;;;5073113;28;20016;-68
2020/12/27 03:28:32;;;;;;;24.83;11.18;;;;;;;;;;5073214;28;20019;-70
2020/12/27 03:30:58;;;;;;;23.27;10.60;;;;;;;;;;5055419;28;20457;-70
2020/12/27 03:33:24;;;;;;;23.33;10.70;;;;;;;;;;5055108;28;20082;-70
2020/12/27 03:35:49;;;;;;;24.25;10.18;;;;;;;;;;5073337;28;20445;-70
2020/12/27 03:38:15;;;;;;;19.65;9.98;;;;;;;;;;5072779;28;20048;-70
2020/12/27 03:40:40;;;;;;;19.95;10.32;;;;;;;;;;5072996;28;20054;-70
2020/12/27 03:43:06;;;;;;;20.83;10.13;;;;;;;;;;5072793;28;20099;-70
2020/12/27 03:45:31;;;;;;;22.88;10.45;;;;;;;;;;5072903;28;20055;-69
2020/12/27 03:47:57;;;;;;;27.02;11.30;;;;;;;;;;5072138;28;20063;-69
2020/12/27 03:50:22;;;;;;;22.92;11.35;;;;;;;;;;5072808;28;20096;-70
2020/12/27 03:52:48;;;;;;;28.67;11.88;;;;;;;;;;5072858;28;20495;-70
2020/12/27 03:55:14;;;;;;;32.22;12.30;;;;;;;;;;5072429;28;20075;-69
2020/12/27 03:57:39;;;;;;;31.88;12.98;;;;;;;;;;5054775;28;20097;-71
2020/12/27 04:00:04;;;;;;;37.05;13.20;;;;;;;;;;5072554;28;20016;-70
2020/12/27 04:02:30;;;;;;;25.83;12.45;;;;;;;;;;5072726;28;20012;-69
2020/12/27 04:04:55;;;;;;;23.80;11.32;;;;;;;;;;5054771;28;20021;-70
2020/12/27 04:07:21;;;;;;;24.60;11.23;;;;;;;;;;5038035;28;20139;-69
2020/12/27 04:09:46;;;;;;;24.95;10.23;;;;;;;;;;5072616;28;20024;-70
2020/12/27 04:12:13;;;;;;;23.85;10.80;;;;;;;;;;5072250;28;20070;-69
2020/12/27 04:14:39;;;;;;;25.70;10.68;;;;;;;;;;5054936;28;20032;-71
2020/12/27 04:17:04;;;;;;;23.00;10.05;;;;;;;;;;5071900;28;20082;-70
2020/12/27 04:19:30;;;;;;;25.83;10.30;;;;;;;;;;5072364;28;20028;-70
2020/12/27 04:21:56;;;;;;;23.95;9.50;;;;;;;;;;5072469;28;20023;-70
2020/12/27 04:24:22;;;;;;;21.23;9.13;;;;;;;;;;5054223;28;20017;-70
2020/12/27 04:26:47;;;;;;;20.02;9.95;;;;;;;;;;5054375;28;20519;-70
2020/12/27 04:29:13;;;;;;;24.48;10.57;;;;;;;;;;5072295;28;20028;-69
2020/12/27 04:31:39;;;;;;;21.52;9.75;;;;;;;;;;5054506;28;20023;-70
2020/12/27 04:34:04;;;;;;;24.40;10.73;;;;;;;;;;5071975;28;20123;-70
2020/12/27 04:36:30;;;;;;;23.75;9.95;;;;;;;;;;5072202;28;20111;-70
2020/12/27 04:38:55;;;;;;;21.48;9.90;;;;;;;;;;5072374;28;20028;-70
2020/12/27 04:41:21;;;;;;;20.92;9.68;;;;;;;;;;5072185;28;20021;-69
2020/12/27 04:43:47;;;;;;;24.17;9.70;;;;;;;;;;5072252;28;20483;-70
2020/12/27 04:46:13;;;;;;;19.90;9.90;;;;;;;;;;5071396;28;20339;-69
2020/12/27 04:48:41;;;;;;;23.45;10.30;;;;;;;;;;5054309;28;20499;-70
2020/12/27 04:51:07;;;;;;;22.52;10.65;;;;;;;;;;5072187;28;20017;-69
2020/12/27 04:53:34;;;;;;;23.10;9.57;;;;;;;;;;5072263;28;20017;-69
2020/12/27 04:56:00;;;;;;;20.38;10.18;;;;;;;;;;5054064;28;20027;-70
2020/12/27 04:58:26;;;;;;;22.42;9.18;;;;;;;;;;5072026;28;20037;-70
2020/12/27 05:00:51;;;;;;;22.20;9.38;;;;;;;;;;5072198;28;20017;-71
2020/12/27 05:03:17;;;;;;;27.15;10.88;;;;;;;;;;5072099;28;20354;-70
2020/12/27 05:05:42;;;;;;;27.30;11.10;;;;;;;;;;5054309;28;20025;-70
2020/12/27 05:08:08;;;;;;;23.70;11.10;;;;;;;;;;5073558;28;20373;-71
2020/12/27 05:10:38;;;;;;;23.02;10.45;;;;;;;;;;5075839;28;20017;-70
2020/12/27 05:13:04;;;;;;;25.38;11.52;;;;;;;;;;5075708;28;20017;-70
2020/12/27 05:15:29;;;;;;;23.75;10.88;;;;;;;;;;5057698;28;20028;-70
2020/12/27 05:17:55;;;;;;;24.02;10.75;;;;;;;;;;5057149;28;20466;-70
2020/12/27 05:20:20;;;;;;;25.25;11.35;;;;;;;;;;5075479;28;20470;-69
2020/12/27 05:22:47;;;;;;;23.73;11.38;;;;;;;;;;5075654;28;20028;-70
2020/12/27 05:25:13;;;;;;;32.00;12.25;;;;;;;;;;5057722;28;20023;-70
2020/12/27 05:27:40;;;;;;;30.00;12.70;;;;;;;;;;5057740;28;20142;-70
2020/12/27 05:30:05;;;;;;;29.27;13.48;;;;;;;;;;5075401;28;20013;-70
2020/12/27 05:32:31;;;;;;;32.35;12.75;;;;;;;;;;5057632;28;20024;-68
2020/12/27 05:34:57;;;;;;;34.45;14.05;;;;;;;;;;5075283;28;20461;-71
2020/12/27 05:37:24;;;;;;;29.98;12.82;;;;;;;;;;5075370;28;20388;-70
2020/12/27 05:39:49;;;;;;;31.17;11.80;;;;;;;;;;5057506;28;20013;-70
2020/12/27 05:42:14;;;;;;;26.30;11.57;;;;;;;;;;5074922;28;20526;-70
2020/12/27 05:44:40;;;;;;;25.88;11.75;;;;;;;;;;5075289;28;20099;-70
2020/12/27 05:47:05;;;;;;;28.33;12.60;;;;;;;;;;5074577;28;20048;-70
2020/12/27 05:49:31;;;;;;;28.33;12.52;;;;;;;;;;5075096;28;20020;-70
2020/12/27 05:51:57;;;;;;;29.45;13.30;;;;;;;;;;5075043;28;20051;-69
2020/12/27 05:54:29;;;;;;;30.38;13.10;;;;;;;;;;5057034;28;20020;-69
2020/12/27 05:56:56;;;;;;;30.42;12.73;;;;;;;;;;5040479;28;20050;-70
2020/12/27 05:59:25;;;;;;;29.00;13.18;;;;;;;;;;5057174;28;20087;-70
2020/12/27 06:01:55;;;;;;;32.72;11.98;;;;;;;;;;5075007;28;20017;-71
2020/12/27 06:04:24;;;;;;;29.35;12.02;;;;;;;;;;5056889;28;20025;-70
2020/12/27 06:06:50;;;;;;;35.70;12.80;;;;;;;;;;5056947;28;20417;-71
2020/12/27 06:09:32;;;;;;;30.67;13.90;;;;;;;;;;5074667;28;20075;-69
2020/12/27 06:12:01;;;;;;;34.92;14.38;;;;;;;;;;5074675;28;20027;-71
2020/12/27 06:14:36;;;;;;;32.38;13.13;;;;;;;;;;5056738;28;20012;-69
2020/12/27 06:17:04;;;;;;;32.85;14.32;;;;;;;;;;5039534;28;20070;-70
2020/12/27 06:19:39;;;;;;;33.88;13.43;;;;;;;;;;5074318;28;20016;-69
2020/12/27 06:22:05;;;;;;;32.97;14.98;;;;;;;;;;5074353;28;20048;-70
2020/12/27 06:24:31;;;;;;;34.13;13.77;;;;;;;;;;5056712;28;20024;-70
2020/12/27 06:26:57;;;;;;;36.95;15.00;;;;;;;;;;5056551;28;20024;-70
2020/12/27 06:29:23;;;;;;;31.27;14.57;;;;;;;;;;5056563;28;20021;-70
2020/12/27 06:31:50;;;;;;;31.85;14.57;;;;;;;;;;5056389;28;20024;-70
2020/12/27 06:34:16;;;;;;;40.33;14.88;;;;;;;;;;5073876;28;20136;-69
2020/12/27 06:36:42;;;;;;;35.22;15.20;;;;;;;;;;5074256;28;20452;-70
2020/12/27 06:39:18;;;;;;;31.98;14.45;;;;;;;;;;5056528;28;20048;-71
2020/12/27 06:41:54;;;;;;;36.90;14.13;;;;;;;;;;5074254;28;20527;-70
2020/12/27 06:44:29;;;;;;;28.23;13.32;;;;;;;;;;5073775;28;20028;-69
2020/12/27 06:46:54;;;;;;;31.23;13.05;;;;;;;;;;5073415;28;20012;-69
2020/12/27 06:49:20;;;;;;;29.00;14.32;;;;;;;;;;5073958;28;20016;-69
2020/12/27 06:51:46;;;;;;;31.95;13.90;;;;;;;;;;5074059;28;20077;-70
2020/12/27 06:54:13;;;;;;;25.23;11.98;;;;;;;;;;5055835;28;20366;-69
2020/12/27 06:56:39;;;;;;;31.88;12.75;;;;;;;;;;5056151;28;20013;-70
2020/12/27 06:59:05;;;;;;;30.42;13.32;;;;;;;;;;5055882;28;20028;-70
2020/12/27 07:01:31;;;;;;;32.10;13.32;;;;;;;;;;5055821;28;20031;-70
2020/12/27 07:04:06;;;;;;;30.77;12.45;;;;;;;;;;5073790;28;20433;-72
2020/12/27 07:06:39;;;;;;;31.38;13.90;;;;;;;;;;5073691;28;20047;-70
2020/12/27 07:09:04;;;;;;;29.85;12.77;;;;;;;;;;5055930;28;20481;-71
2020/12/27 07:11:31;;;;;;;27.83;12.88;;;;;;;;;;5073432;28;20067;-70
2020/12/27 07:13:57;;;;;;;26.35;11.82;;;;;;;;;;5055653;28;20086;-71
2020/12/27 07:16:32;;;;;;;32.95;13.43;;;;;;;;;;5054868;28;20025;-70
2020/12/27 07:18:59;;;;;;;29.10;12.68;;;;;;;;;;5073575;28;20055;-71
2020/12/27 07:21:27;;;;;;;25.13;12.00;;;;;;;;;;5055415;28;20442;-69
2020/12/27 07:24:03;;;;;;;32.92;13.25;;;;;;;;;;5055379;28;20389;-71
2020/12/27 07:26:31;;;;;;;31.83;13.65;;;;;;;;;;5073688;28;20465;-69
2020/12/27 07:29:00;;;;;;;23.90;11.90;;;;;;;;;;5056021;28;20354;-70
2020/12/27 07:31:26;;;;;;;26.27;12.20;;;;;;;;;;5054920;28;20054;-70
2020/12/27 07:33:58;;;;;;;29.77;13.15;;;;;;;;;;5073012;28;20044;-70
2020/12/27 07:36:24;;;;;;;31.13;13.52;;;;;;;;;;5073010;28;20036;-70
2020/12/27 07:38:50;;;;;;;30.55;13.23;;;;;;;;;;5073376;28;20354;-70
2020/12/27 07:41:20;;;;;;;29.63;12.95;;;;;;;;;;5072931;28;20012;-69
2020/12/27 07:43:45;;;;;;;27.40;11.63;;;;;;;;;;5073042;28;20039;-70
2020/12/27 07:46:13;;;;;;;23.05;11.95;;;;;;;;;;5072122;28;20017;-70
2020/12/27 07:48:40;;;;;;;28.65;13.05;;;;;;;;;;5072999;28;20020;-70
2020/12/27 07:51:16;;;;;;;26.58;12.02;;;;;;;;;;5055145;28;20025;-70
2020/12/27 07:53:53;;;;;;;27.73;11.52;;;;;;;;;;5072980;28;20016;-70
2020/12/27 07:56:19;;;;;;;25.55;10.73;;;;;;;;;;5054714;28;20576;-69
2020/12/27 07:58:48;;;;;;;28.40;10.80;;;;;;;;;;5054908;28;20435;-71
2020/12/27 08:01:17;;;;;;;23.33;11.38;;;;;;;;;;5072921;28;20346;-71
2020/12/27 08:03:43;;;;;;;24.15;11.60;;;;;;;;;;5072848;28;20031;-71
2020/12/27 08:06:08;;;;;;;23.42;11.85;;;;;;;;;;5072549;28;20091;-71
2020/12/27 08:08:34;;;;;;;24.40;11.25;;;;;;;;;;5072618;28;20470;-71
2020/12/27 08:10:59;;;;;;;22.13;10.80;;;;;;;;;;5072812;28;20039;-70
2020/12/27 08:13:25;;;;;;;26.80;12.20;;;;;;;;;;5054599;28;20413;-70
2020/12/27 08:15:50;;;;;;;25.55;11.38;;;;;;;;;;5054556;28;20094;-70
2020/12/27 08:18:16;;;;;;;28.45;12.68;;;;;;;;;;5071789;28;20020;-70
2020/12/27 08:20:43;;;;;;;26.60;11.93;;;;;;;;;;5072632;28;20066;-70
2020/12/27 08:23:10;;;;;;;23.67;11.23;;;;;;;;;;5054427;28;20473;-69
2020/12/27 08:25:36;;;;;;;25.45;12.27;;;;;;;;;;5054476;28;20154;-70
2020/12/27 08:28:03;;;;;;;26.92;11.65;;;;;;;;;;5037795;28;20381;-70
2020/12/27 08:30:30;;;;;;;25.63;11.43;;;;;;;;;;5072531;28;20461;-70
2020/12/27 08:33:05;;;;;;;26.80;11.38;;;;;;;;;;5050951;28;20037;-70
2020/12/27 08:35:30;;;;;;;28.45;12.32;;;;;;;;;;5052386;28;20017;-69
2020/12/27 08:37:56;;;;;;;28.48;11.75;;;;;;;;;;5051090;28;20024;-69
2020/12/27 08:40:23;;;;;;;29.00;12.15;;;;;;;;;;5052388;28;20017;-69
2020/12/27 08:42:49;;;;;;;26.25;12.27;;;;;;;;;;5053833;28;20108;-69
2020/12/27 08:45:16;;;;;;;29.38;11.57;;;;;;;;;;5056498;28;20044;-70
2020/12/27 08:47:44;;;;;;;23.80;11.63;;;;;;;;;;5054610;28;20021;-70
2020/12/27 08:50:10;;;;;;;20.95;10.35;;;;;;;;;;5056203;28;20385;-68
2020/12/27 08:52:37;;;;;;;20.40;10.48;;;;;;;;;;5056231;28;20539;-69
2020/12/27 08:55:04;;;;;;;20.50;9.50;;;;;;;;;;5056208;28;20035;-69
2020/12/27 08:57:30;;;;;;;21.90;9.05;;;;;;;;;;5055006;28;20028;-70
2020/12/27 08:59:58;;;;;;;18.92;9.55;;;;;;;;;;5056191;28;20020;-70
2020/12/27 09:02:23;;;;;;;21.65;10.25;;;;;;;;;;5054896;28;20020;-69
2020/12/27 09:04:58;;;;;;;21.25;9.63;;;;;;;;;;5055121;28;20017;-68
2020/12/27 09:07:29;;;;;;;20.45;9.80;;;;;;;;;;5054722;28;20063;-69
2020/12/27 09:10:02;;;;;;;22.20;10.82;;;;;;;;;;5055127;28;20103;-69
2020/12/27 09:12:28;;;;;;;20.98;10.93;;;;;;;;;;5056080;28;20473;-69
2020/12/27 09:14:54;;;;;;;23.23;11.13;;;;;;;;;;5054833;28;20507;-70
2020/12/27 09:17:20;;;;;;;26.42;11.65;;;;;;;;;;5055249;28;20056;-69
2020/12/27 09:19:46;;;;;;;23.08;10.05;;;;;;;;;;5055753;28;20020;-70
2020/12/27 09:22:12;;;;;;;20.80;10.45;;;;;;;;;;5055660;28;20075;-70
2020/12/27 09:24:37;;;;;;;24.45;11.05;;;;;;;;;;5054946;28;20017;-70
2020/12/27 09:27:04;;;;;;;26.40;12.13;;;;;;;;;;5055951;28;20261;-69
2020/12/27 09:29:30;;;;;;;22.00;11.32;;;;;;;;;;5055478;28;20021;-70
2020/12/27 09:32:06;;;;;;;27.50;11.73;;;;;;;;;;5055691;28;20017;-70
2020/12/27 09:34:32;;;;;;;19.00;10.18;;;;;;;;;;5054293;28;20048;-70
2020/12/27 09:37:10;;;;;;;24.90;10.75;;;;;;;;;;5055789;28;20029;-69
2020/12/27 09:39:35;;;;;;;22.48;10.88;;;;;;;;;;5054292;28;20029;-70
2020/12/27 09:42:01;;;;;;;29.23;13.85;;;;;;;;;;5053990;28;20031;-69
2020/12/27 09:44:30;;;;;;;33.92;16.75;;;;;;;;;;5055209;28;20013;-69
2020/12/27 09:46:57;;;;;;;31.08;15.82;;;;;;;;;;5054631;28;20043;-69
2020/12/27 09:49:24;;;;;;;26.45;11.35;;;;;;;;;;5054077;28;20381;-69
2020/12/27 09:51:59;;;;;;;22.30;11.02;;;;;;;;;;5054133;28;20057;-69
2020/12/27 09:54:24;;;;;;;20.50;9.57;;;;;;;;;;5054533;28;20021;-69
2020/12/27 09:56:50;;;;;;;22.45;8.77;;;;;;;;;;5054945;28;20021;-69
2020/12/27 09:59:15;;;;;;;21.63;9.95;;;;;;;;;;5053760;28;20099;-69
2020/12/27 10:01:40;;;;;;;23.65;10.27;;;;;;;;;;5054994;28;20496;-70
2020/12/27 10:04:06;;;;;;;22.13;9.13;;;;;;;;;;5053538;28;20099;-70
2020/12/27 10:06:31;;;;;;;24.83;9.38;;;;;;;;;;5054988;28;20021;-70
2020/12/27 10:08:58;;;;;;;18.75;9.15;;;;;;;;;;5054761;28;20017;-70
2020/12/27 10:11:23;;;;;;;21.60;9.60;;;;;;;;;;5054846;28;20061;-69
2020/12/27 10:13:49;;;;;;;19.75;9.48;;;;;;;;;;5054931;28;20037;-69
2020/12/27 10:16:14;;;;;;;25.70;13.20;;;;;;;;;;5053723;28;20385;-69
2020/12/27 10:18:40;;;;;;;28.25;14.63;;;;;;;;;;5054663;28;20033;-70
2020/12/27 10:21:07;;;;;;;31.73;14.57;;;;;;;;;;5053552;28;20385;-70
2020/12/27 10:23:33;;;;;;;30.88;12.68;;;;;;;;;;5054612;28;20013;-70
2020/12/27 10:25:59;;;;;;;25.02;11.02;;;;;;;;;;5054476;28;20032;-70
2020/12/27 10:28:24;;;;;;;21.80;11.27;;;;;;;;;;5054542;28;20385;-69
2020/12/27 10:30:51;;;;;;;22.08;10.40;;;;;;;;;;5054552;28;20191;-70
2020/12/27 10:33:16;;;;;;;20.58;10.18;;;;;;;;;;5060442;28;20040;-70
2020/12/27 10:35:42;;;;;;;21.20;9.68;;;;;;;;;;5074241;28;20036;-70
2020/12/27 10:38:07;;;;;;;21.50;9.68;;;;;;;;;;5056248;28;20028;-70
2020/12/27 10:40:36;;;;;;;19.77;9.27;;;;;;;;;;5074352;28;20158;-70
2020/12/27 10:43:02;;;;;;;22.75;10.48;;;;;;;;;;5056346;28;20017;-71
2020/12/27 10:45:27;;;;;;;24.80;10.02;;;;;;;;;;5074237;28;20471;-70
2020/12/27 10:47:53;;;;;;;21.48;11.45;;;;;;;;;;5073765;28;20024;-70
2020/12/27 10:50:18;;;;;;;20.92;9.30;;;;;;;;;;5073967;28;20063;-70
2020/12/27 10:52:44;;;;;;;22.27;11.45;;;;;;;;;;5074045;28;20013;-70
2020/12/27 10:55:09;;;;;;;25.77;11.60;;;;;;;;;;5055991;28;20063;-70
2020/12/27 10:57:35;;;;;;;23.00;10.73;;;;;;;;;;5073799;28;20024;-71
2020/12/27 11:00:00;;;;;;;21.73;10.13;;;;;;;;;;5073636;28;20025;-72
2020/12/27 11:02:25;;;;;;;20.02;10.30;;;;;;;;;;5056013;28;20066;-70
2020/12/27 11:04:51;;;;;;;23.15;10.50;;;;;;;;;;5073220;28;20020;-70
2020/12/27 11:07:16;;;;;;;21.80;10.95;;;;;;;;;;5055642;28;20473;-71
2020/12/27 11:09:42;;;;;;;23.35;11.02;;;;;;;;;;5073644;28;20096;-70
2020/12/27 11:12:07;;;;;;;29.17;10.95;;;;;;;;;;5073430;28;20012;-71
2020/12/27 11:14:33;;;;;;;19.02;10.38;;;;;;;;;;5073473;28;20482;-70
2020/12/27 11:16:58;;;;;;;24.35;11.13;;;;;;;;;;5054981;28;20123;-71
2020/12/27 11:19:23;;;;;;;22.58;10.57;;;;;;;;;;5073929;28;20052;-69
2020/12/27 11:21:49;;;;;;;21.58;9.48;;;;;;;;;;5073800;28;20351;-70
2020/12/27 11:24:16;;;;;;;20.17;9.80;;;;;;;;;;5073239;28;20062;-70
2020/12/27 11:26:42;;;;;;;21.77;10.23;;;;;;;;;;5073375;28;20483;-71
2020/12/27 11:29:08;;;;;;;23.65;10.00;;;;;;;;;;5055654;28;20087;-70
2020/12/27 11:31:33;;;;;;;24.20;11.25;;;;;;;;;;5055249;28;20151;-70
2020/12/27 11:33:59;;;;;;;25.10;11.38;;;;;;;;;;5073057;28;20091;-72
2020/12/27 11:36:25;;;;;;;20.50;10.23;;;;;;;;;;5073459;28;20506;-69
2020/12/27 11:39:07;;;;;;;21.77;10.02;;;;;;;;;;5073611;28;20099;-70
2020/12/27 11:41:33;;;;;;;22.08;10.63;;;;;;;;;;5073278;28;20484;-71
2020/12/27 11:43:58;;;;;;;20.90;9.70;;;;;;;;;;5054884;28;20102;-71
2020/12/27 11:46:25;;;;;;;23.05;11.82;;;;;;;;;;5054460;28;20028;-69
2020/12/27 11:48:50;;;;;;;22.73;11.25;;;;;;;;;;5073130;28;20017;-70
2020/12/27 11:51:17;;;;;;;23.08;11.20;;;;;;;;;;5073025;28;20013;-69
2020/12/27 11:53:42;;;;;;;24.35;12.32;;;;;;;;;;5072931;28;20044;-70
2020/12/27 11:56:08;;;;;;;24.55;11.75;;;;;;;;;;5072545;28;20044;-70
2020/12/27 11:58:34;;;;;;;20.17;10.65;;;;;;;;;;5072757;28;20103;-70
2020/12/27 12:00:59;;;;;;;24.17;11.75;;;;;;;;;;5072927;28;20001;-71
2020/12/27 12:03:25;;;;;;;23.35;11.85;;;;;;;;;;5072958;28;20461;-69
2020/12/27 12:05:50;;;;;;;21.27;11.50;;;;;;;;;;5072865;28;20055;-70
2020/12/27 12:08:16;;;;;;;28.33;12.50;;;;;;;;;;5072558;28;20044;-71
2020/12/27 12:10:41;;;;;;;24.83;11.50;;;;;;;;;;5054676;28;20366;-70
2020/12/27 12:13:07;;;;;;;22.33;11.60;;;;;;;;;;5072595;28;20020;-70
2020/12/27 12:15:33;;;;;;;23.80;11.57;;;;;;;;;;5054703;28;20025;-70
2020/12/27 12:17:58;;;;;;;24.92;11.05;;;;;;;;;;5071508;28;20024;-70
2020/12/27 12:22:59;;;;;;;28.25;12.10;;;;;;;;;;5054659;28;20422;-70
2020/12/27 12:25:24;;;;;;;26.48;11.95;;;;;;;;;;5072450;28;20059;-69
2020/12/27 12:27:50;;;;;;;23.27;10.77;;;;;;;;;;5072476;28;20021;-70
2020/12/27 12:30:15;;;;;;;27.20;10.85;;;;;;;;;;5072243;28;20024;-70
2020/12/27 12:32:41;;;;;;;28.85;13.00;;;;;;;;;;5072250;28;20377;-70
2020/12/27 12:35:06;;;;;;;28.25;12.25;;;;;;;;;;5054439;28;20025;-71
2020/12/27 12:37:31;;;;;;;24.50;12.10;;;;;;;;;;5072323;28;20092;-70
2020/12/27 12:39:57;;;;;;;23.58;11.98;;;;;;;;;;5054472;28;20111;-70
2020/12/27 12:42:22;;;;;;;24.40;12.05;;;;;;;;;;5072236;28;20059;-69
2020/12/27 12:44:48;;;;;;;28.60;12.10;;;;;;;;;;5072356;28;20031;-69
2020/12/27 12:47:13;;;;;;;39.25;14.40;;;;;;;;;;5053594;28;20020;-70
2020/12/27 12:49:39;;;;;;;27.98;12.50;;;;;;;;;;5054402;28;20020;-69
2020/12/27 12:52:05;;;;;;;29.27;13.10;;;;;;;;;;5072066;28;20023;-69
2020/12/27 12:54:30;;;;;;;27.23;12.32;;;;;;;;;;5072176;28;20028;-69
2020/12/27 12:56:56;;;;;;;29.05;12.48;;;;;;;;;;5054172;28;20029;-70
2020/12/27 12:59:21;;;;;;;25.02;11.90;;;;;;;;;;5072062;28;20484;-70
2020/12/27 13:01:48;;;;;;;25.35;11.60;;;;;;;;;;5072244;28;20368;-70
2020/12/27 13:04:13;;;;;;;27.05;12.13;;;;;;;;;;5071945;28;20017;-70
2020/12/27 13:06:39;;;;;;;26.42;12.30;;;;;;;;;;5072262;28;20023;-70
2020/12/27 13:09:04;;;;;;;24.85;11.48;;;;;;;;;;5071913;28;20025;-70
2020/12/27 13:11:30;;;;;;;26.75;12.57;;;;;;;;;;5071933;28;20028;-69
2020/12/27 13:13:55;;;;;;;29.48;13.32;;;;;;;;;;5072094;28;20532;-70
2020/12/27 13:16:21;;;;;;;22.75;12.40;;;;;;;;;;5053576;28;20397;-70
2020/12/27 13:18:46;;;;;;;29.33;13.35;;;;;;;;;;5072094;28;20165;-69
2020/12/27 13:21:12;;;;;;;26.33;12.35;;;;;;;;;;5071899;28;20432;-70
2020/12/27 13:23:38;;;;;;;28.25;12.68;;;;;;;;;;5053944;28;20055;-70
2020/12/27 13:26:03;;;;;;;25.70;13.13;;;;;;;;;;5071788;28;20048;-70
2020/12/27 13:28:28;;;;;;;26.05;13.02;;;;;;;;;;5054618;28;20012;-69
2020/12/27 13:30:55;;;;;;;26.63;12.85;;;;;;;;;;5075566;28;20048;-70
2020/12/27 13:33:21;;;;;;;28.80;13.40;;;;;;;;;;5057373;28;20132;-70
2020/12/27 13:35:47;;;;;;;30.90;14.18;;;;;;;;;;5057674;28;20100;-70
2020/12/27 13:38:13;;;;;;;35.88;14.32;;;;;;;;;;5075214;28;20611;-70
2020/12/27 13:40:38;;;;;;;26.90;13.65;;;;;;;;;;5075427;28;20103;-70
2020/12/27 13:43:04;;;;;;;29.45;13.80;;;;;;;;;;5075352;28;20047;-70
2020/12/27 13:45:29;;;;;;;28.85;13.23;;;;;;;;;;5075302;28;20377;-69
2020/12/27 13:47:55;;;;;;;30.33;13.43;;;;;;;;;;5056783;28;20028;-70
2020/12/27 13:50:20;;;;;;;28.35;12.88;;;;;;;;;;5074930;28;20023;-70
2020/12/27 13:52:46;;;;;;;28.00;13.70;;;;;;;;;;5075243;28;20465;-69
2020/12/27 13:55:11;;;;;;;30.02;13.73;;;;;;;;;;5057138;28;20031;-69
2020/12/27 13:57:37;;;;;;;36.28;14.57;;;;;;;;;;5057133;28;20019;-70
2020/12/27 14:00:03;;;;;;;32.70;15.32;;;;;;;;;;5075030;28;20031;-74
2020/12/27 14:02:28;;;;;;;31.05;15.15;;;;;;;;;;5040588;28;20020;-70
2020/12/27 14:04:53;;;;;;;29.00;13.80;;;;;;;;;;5074975;28;20492;-70
2020/12/27 14:07:19;;;;;;;29.73;14.32;;;;;;;;;;5057137;28;20017;-70
2020/12/27 14:09:44;;;;;;;34.97;15.60;;;;;;;;;;5074950;28;20047;-71
2020/12/27 14:12:11;;;;;;;34.58;15.32;;;;;;;;;;5056779;28;20031;-70
2020/12/27 14:14:36;;;;;;;31.48;14.35;;;;;;;;;;5074620;28;20016;-70
2020/12/27 14:17:01;;;;;;;34.50;15.07;;;;;;;;;;5074029;28;20143;-71
2020/12/27 14:19:27;;;;;;;31.63;15.38;;;;;;;;;;5074729;28;20025;-69